Time;durP1;ratioP1;P1;durP2;ratioP2;P2;SDS_P1;SDS_P2;PMS_P1;PMS_P2;Temp;Humidity;BMP_temperature;BMP_pressure;BME280_temperature;BME280_humidity;BME280_pressure;Samples;Min_cycle;Max_cycle;Signal;HPM_P1;HPM_P2
2021/12/28 00:01:33;;;;;;;3.07;1.93;;;;;;;9.54;96.00;94993.59;5040556;28;20209;-72
2021/12/28 00:04:00;;;;;;;4.47;2.33;;;;;;;9.63;95.83;95001.06;5039623;28;20232;-71
2021/12/28 00:06:27;;;;;;;3.43;1.93;;;;;;;9.61;96.28;94994.41;5039166;28;20196;-70
2021/12/28 00:08:53;;;;;;;4.00;1.50;;;;;;;9.55;96.24;95001.28;5039745;28;20225;-70
2021/12/28 00:11:20;;;;;;;1.67;1.50;;;;;;;9.51;95.97;94999.22;5040901;28;20591;-69
2021/12/28 00:13:46;;;;;;;3.80;2.10;;;;;;;9.33;96.46;95001.63;5038646;28;20224;-72
2021/12/28 00:16:30;;;;;;;2.53;1.97;;;;;;;9.68;95.55;94991.56;5039882;28;20209;-70
2021/12/28 00:18:58;;;;;;;2.80;2.00;;;;;;;9.76;95.36;94987.94;5040126;28;20292;-71
2021/12/28 00:21:24;;;;;;;5.57;2.80;;;;;;;9.60;95.49;94987.50;5037366;28;20208;-72
2021/12/28 00:23:51;;;;;;;3.87;2.13;;;;;;;9.33;96.38;94996.38;5039370;28;20229;-71
2021/12/28 00:26:20;;;;;;;3.27;1.80;;;;;;;9.80;95.17;94983.88;5039367;28;20201;-72
2021/12/28 00:28:47;;;;;;;11.77;2.57;;;;;;;9.53;95.70;94979.63;5039246;28;20311;-71
2021/12/28 00:31:16;;;;;;;7.33;2.33;;;;;;;9.65;95.62;94979.81;5039158;28;20205;-69
2021/12/28 00:33:44;;;;;;;3.37;2.20;;;;;;;9.59;94.91;94984.09;5039433;28;20314;-69
2021/12/28 00:36:11;;;;;;;5.17;2.47;;;;;;;9.37;94.92;94971.31;5040001;28;20201;-72
2021/12/28 00:38:37;;;;;;;14.27;1.83;;;;;;;9.18;95.25;94972.09;5039228;28;20712;-71
2021/12/28 00:41:05;;;;;;;3.00;1.60;;;;;;;9.14;96.75;94970.88;5039032;28;20209;-70
2021/12/28 00:43:33;;;;;;;7.30;2.30;;;;;;;9.21;95.91;94971.69;5039087;28;20274;-70
2021/12/28 00:46:00;;;;;;;4.00;2.13;;;;;;;9.19;95.74;94971.91;5038847;28;20205;-72
2021/12/28 00:48:28;;;;;;;9.57;2.03;;;;;;;9.38;95.26;94971.13;5039228;28;20312;-72
2021/12/28 00:50:56;;;;;;;3.03;2.17;;;;;;;9.24;94.65;94976.53;5040029;28;20216;-71
2021/12/28 00:53:22;;;;;;;2.73;1.60;;;;;;;9.10;94.80;94974.91;5038769;28;20225;-70
2021/12/28 00:55:49;;;;;;;3.03;1.83;;;;;;;8.98;95.14;94968.59;5039389;28;20212;-72
2021/12/28 00:58:16;;;;;;;3.27;1.93;;;;;;;8.92;95.80;94968.56;5039790;28;20205;-71
2021/12/28 01:00:43;;;;;;;4.07;2.33;;;;;;;8.81;95.62;94972.59;5039967;28;20208;-69
2021/12/28 01:03:10;;;;;;;3.90;2.53;;;;;;;8.76;95.96;94964.47;5038306;28;20300;-72
2021/12/28 01:05:39;;;;;;;3.13;2.03;;;;;;;9.11;95.87;94966.00;5039090;28;20205;-70
2021/12/28 01:08:06;;;;;;;5.73;2.93;;;;;;;8.65;96.79;94964.25;5038726;28;20217;-70
2021/12/28 01:10:36;;;;;;;5.93;2.60;;;;;;;8.70;95.96;94962.63;5038972;28;20209;-70
2021/12/28 01:13:03;;;;;;;2.60;1.97;;;;;;;8.75;95.30;94965.47;5037788;28;20204;-71
2021/12/28 01:15:31;;;;;;;3.67;2.20;;;;;;;9.01;95.62;94970.03;5038298;28;20205;-72
2021/12/28 01:17:58;;;;;;;9.20;2.53;;;;;;;8.54;96.54;94962.97;5038555;28;20205;-71
2021/12/28 01:20:26;;;;;;;3.57;2.03;;;;;;;8.53;95.29;94977.09;5035864;28;20213;-71
2021/12/28 01:22:54;;;;;;;3.70;1.63;;;;;;;8.94;95.24;94963.94;5037743;28;20201;-72
2021/12/28 01:25:21;;;;;;;2.47;1.80;;;;;;;8.75;94.74;94957.59;5036936;28;20691;-72
2021/12/28 01:27:48;;;;;;;3.60;1.93;;;;;;;8.61;95.00;94966.44;5037068;28;20209;-71
2021/12/28 01:30:18;;;;;;;3.33;2.03;;;;;;;8.72;94.50;94968.50;5038297;28;20244;-70
2021/12/28 01:32:45;;;;;;;2.67;1.87;;;;;;;8.54;94.84;94972.66;5037666;28;20294;-70
2021/12/28 01:35:14;;;;;;;4.70;2.33;;;;;;;8.84;94.25;94974.00;5037496;28;20263;-72
2021/12/28 01:37:41;;;;;;;4.40;1.67;;;;;;;8.60;93.49;94970.09;5038154;28;20197;-72
2021/12/28 01:40:14;;;;;;;4.23;1.43;;;;;;;8.87;93.24;94971.81;5037962;28;20212;-72
2021/12/28 01:43:15;;;;;;;4.70;1.70;;;;;;;9.00;92.22;94977.09;5037726;28;20213;-71
2021/12/28 01:45:46;;;;;;;2.50;1.40;;;;;;;8.80;94.20;94981.47;4980546;28;20207;-69
2021/12/28 01:48:15;;;;;;;2.37;1.57;;;;;;;8.76;94.39;94964.47;4979810;28;20627;-70
2021/12/28 01:50:42;;;;;;;3.60;1.70;;;;;;;8.43;94.97;94964.56;5010144;28;20201;-72
2021/12/28 01:53:09;;;;;;;9.50;3.30;;;;;;;8.52;93.85;94961.56;5041225;28;20220;-72
2021/12/28 01:55:39;;;;;;;6.10;2.43;;;;;;;8.78;93.78;94959.03;5042139;28;20216;-72
2021/12/28 01:58:06;;;;;;;2.33;1.50;;;;;;;8.32;94.99;94959.84;5041423;28;20572;-69
2021/12/28 02:00:33;;;;;;;13.23;2.60;;;;;;;8.38;94.70;94957.25;5041811;28;20201;-70
2021/12/28 02:03:00;;;;;;;2.37;1.83;;;;;;;8.54;94.17;94960.34;5043631;28;20957;-70
2021/12/28 02:05:27;;;;;;;2.23;1.20;;;;;;;8.45;94.19;94952.03;5042089;28;20224;-69
2021/12/28 02:07:53;;;;;;;4.37;2.20;;;;;;;8.26;95.00;94942.25;5041523;28;20234;-72
2021/12/28 02:10:20;;;;;;;5.33;2.37;;;;;;;8.43;94.46;94933.84;5041541;28;20248;-72
2021/12/28 02:12:48;;;;;;;2.87;1.93;;;;;;;8.65;94.63;94930.09;5040662;28;20201;-72
2021/12/28 02:15:15;;;;;;;3.13;1.77;;;;;;;8.32;94.12;94920.47;5041507;28;21294;-71
2021/12/28 02:17:43;;;;;;;3.63;1.87;;;;;;;8.51;93.57;94910.06;5041366;28;20420;-71
2021/12/28 02:20:12;;;;;;;3.63;1.63;;;;;;;8.63;93.44;94904.06;5035029;28;20204;-71
2021/12/28 02:22:39;;;;;;;3.73;1.93;;;;;;;8.34;93.52;94902.69;5039732;28;20209;-71
2021/12/28 02:25:07;;;;;;;2.50;1.40;;;;;;;8.56;93.37;94897.16;5040680;28;20224;-71
2021/12/28 02:27:35;;;;;;;4.33;2.20;;;;;;;8.57;92.62;94899.56;5040471;28;20247;-71
2021/12/28 02:30:02;;;;;;;2.13;1.50;;;;;;;8.41;93.37;94895.69;5040338;28;20252;-71
2021/12/28 02:32:30;;;;;;;3.77;1.37;;;;;;;8.60;93.10;94903.63;5039884;28;20214;-71
2021/12/28 02:34:58;;;;;;;2.33;1.50;;;;;;;8.39;93.23;94892.44;5040004;28;20704;-72
2021/12/28 02:37:26;;;;;;;1.73;1.30;;;;;;;8.51;93.58;94892.50;5039989;28;20229;-71
2021/12/28 02:39:53;;;;;;;2.83;1.40;;;;;;;8.28;93.37;94885.13;5041123;28;20209;-69
2021/12/28 02:42:23;;;;;;;3.40;1.87;;;;;;;8.52;94.15;94886.22;5040058;28;20993;-70
2021/12/28 02:44:57;;;;;;;1.33;1.23;;;;;;;8.79;93.00;94887.13;5039456;28;20240;-71
2021/12/28 02:47:23;;;;;;;1.83;1.20;;;;;;;8.25;93.88;94885.50;5041166;28;20201;-72
2021/12/28 02:49:50;;;;;;;1.37;1.10;;;;;;;8.29;93.67;94890.19;5040896;28;20221;-72
2021/12/28 02:52:16;;;;;;;9.23;1.57;;;;;;;8.07;95.16;94880.78;5039127;28;20985;-72
2021/12/28 02:54:44;;;;;;;3.57;1.27;;;;;;;8.38;94.53;94881.13;5038537;28;20225;-71
2021/12/28 02:57:11;;;;;;;3.07;1.37;;;;;;;8.30;93.75;94877.88;5040470;28;20759;-72
2021/12/28 02:59:45;;;;;;;2.50;1.90;;;;;;;8.89;93.14;94867.34;5040028;28;20573;-72
2021/12/28 03:02:12;;;;;;;2.27;1.30;;;;;;;8.33;93.67;94862.53;5039829;28;20201;-70
2021/12/28 03:04:39;;;;;;;2.83;1.80;;;;;;;8.29;93.80;94868.41;5039539;28;20747;-71
2021/12/28 03:07:05;;;;;;;3.30;2.07;;;;;;;8.39;93.51;94869.63;5039860;28;20232;-70
2021/12/28 03:09:32;;;;;;;3.30;1.17;;;;;;;8.29;93.37;94855.28;5040018;28;20221;-69
2021/12/28 03:11:59;;;;;;;3.47;1.50;;;;;;;8.50;93.59;94846.25;5040662;28;20201;-71
2021/12/28 03:14:26;;;;;;;2.43;1.23;;;;;;;8.37;93.16;94840.16;5039747;28;21451;-71
2021/12/28 03:16:52;;;;;;;3.80;1.40;;;;;;;8.37;93.46;94844.59;5040719;28;21068;-72
2021/12/28 03:19:19;;;;;;;3.30;1.80;;;;;;;8.45;91.94;94832.09;5040030;28;20201;-71
2021/12/28 03:21:46;;;;;;;3.50;1.07;;;;;;;8.12;93.10;94832.94;5033681;28;20203;-69
2021/12/28 03:24:13;;;;;;;3.13;1.03;;;;;;;8.28;93.14;94816.91;5038767;28;20221;-69
2021/12/28 03:26:40;;;;;;;2.57;1.57;;;;;;;8.38;92.08;94817.34;5039496;28;20677;-70
2021/12/28 03:29:07;;;;;;;4.60;1.73;;;;;;;8.60;91.86;94815.19;5040010;28;20232;-71
2021/12/28 03:31:34;;;;;;;1.30;1.07;;;;;;;8.24;91.62;94813.88;5040087;28;20205;-71
2021/12/28 03:34:01;;;;;;;1.70;1.10;;;;;;;8.21;91.89;94808.19;5038964;28;20826;-71
2021/12/28 03:36:29;;;;;;;8.40;1.43;;;;;;;8.42;93.14;94794.94;5040115;28;20205;-70
2021/12/28 03:38:57;;;;;;;1.93;1.03;;;;;;;7.94;93.65;94796.78;5040505;28;20209;-71
2021/12/28 03:41:25;;;;;;;9.83;1.53;;;;;;;8.19;93.61;94800.53;5039698;28;20209;-72
2021/12/28 03:43:53;;;;;;;2.43;1.43;;;;;;;8.25;92.91;94788.44;5038344;28;20221;-71
2021/12/28 03:46:22;;;;;;;4.43;1.10;;;;;;;8.21;92.72;94784.59;5039225;28;20208;-70
2021/12/28 03:48:49;;;;;;;3.30;1.60;;;;;;;7.90;92.35;94792.94;5039553;28;20205;-71
2021/12/28 03:51:17;;;;;;;4.60;2.00;;;;;;;8.14;91.62;94787.19;5040658;28;20201;-69
2021/12/28 03:53:46;;;;;;;5.27;1.40;;;;;;;7.91;91.70;94783.25;5040966;28;20736;-71
2021/12/28 03:56:12;;;;;;;3.83;1.77;;;;;;;7.96;92.06;94781.66;5040771;28;21291;-72
2021/12/28 03:58:41;;;;;;;5.43;2.57;;;;;;;8.09;91.62;94791.38;5039464;28;20205;-71
2021/12/28 04:01:10;;;;;;;3.40;1.40;;;;;;;8.19;90.26;94778.75;5040011;28;20197;-71
2021/12/28 04:03:37;;;;;;;4.10;1.63;;;;;;;8.03;90.83;94779.03;5039777;28;20287;-70
2021/12/28 04:06:08;;;;;;;2.07;1.63;;;;;;;7.68;89.98;94781.94;5039485;28;20205;-71
2021/12/28 04:08:35;;;;;;;1.73;1.40;;;;;;;7.69;89.41;94773.06;5040425;28;20274;-71
2021/12/28 04:11:13;;;;;;;1.20;0.83;;;;;;;7.52;90.60;94774.38;5039812;28;20224;-71
2021/12/28 04:13:41;;;;;;;0.80;0.80;;;;;;;7.40;91.79;94781.97;5038221;28;20225;-70
2021/12/28 04:16:07;;;;;;;3.23;0.90;;;;;;;7.52;91.46;94774.38;5039369;28;20232;-72
2021/12/28 04:18:34;;;;;;;2.90;1.20;;;;;;;7.56;91.63;94776.44;5040356;28;20205;-69
2021/12/28 04:21:02;;;;;;;2.90;1.43;;;;;;;7.62;90.82;94778.25;5036310;28;20201;-70
2021/12/28 04:23:28;;;;;;;1.93;1.20;;;;;;;7.40;91.99;94776.75;5039226;28;20939;-70
2021/12/28 04:25:55;;;;;;;1.17;0.70;;;;;;;7.52;92.12;94780.47;5039837;28;20208;-71
2021/12/28 04:28:22;;;;;;;1.80;1.00;;;;;;;7.48;91.01;94773.94;5039653;28;20208;-70
2021/12/28 04:30:48;;;;;;;3.37;1.00;;;;;;;7.54;91.48;94775.00;5038965;28;20692;-72
2021/12/28 04:33:15;;;;;;;1.13;0.90;;;;;;;7.52;91.74;94780.47;5038520;28;20236;-72
2021/12/28 04:35:41;;;;;;;0.93;0.90;;;;;;;7.72;90.80;94775.31;5039870;28;20209;-69
2021/12/28 04:38:09;;;;;;;2.13;1.07;;;;;;;7.91;90.83;94775.38;5040027;28;20296;-70
2021/12/28 04:40:36;;;;;;;2.03;1.10;;;;;;;7.51;92.03;94765.72;5038088;28;20213;-70
2021/12/28 04:43:02;;;;;;;1.77;1.30;;;;;;;7.54;92.08;94772.38;5038722;28;20208;-72
2021/12/28 04:45:30;;;;;;;1.20;1.10;;;;;;;7.71;90.35;94768.44;5039516;28;20278;-70
2021/12/28 04:47:56;;;;;;;1.20;0.97;;;;;;;7.76;90.76;94772.09;5039461;28;20204;-72
2021/12/28 04:50:23;;;;;;;1.13;1.00;;;;;;;7.84;90.57;94766.69;5038891;28;20237;-71
2021/12/28 04:52:52;;;;;;;1.70;1.17;;;;;;;7.99;90.10;94768.16;5038876;28;20216;-69
2021/12/28 04:55:20;;;;;;;0.83;0.83;;;;;;;8.21;90.25;94760.97;5039559;28;20205;-69
2021/12/28 04:57:47;;;;;;;1.23;1.10;;;;;;;8.05;90.39;94761.31;5040368;28;20252;-71
2021/12/28 05:00:17;;;;;;;3.50;1.03;;;;;;;8.19;90.47;94765.63;5039352;28;20211;-71
2021/12/28 05:02:44;;;;;;;0.40;0.40;;;;;;;8.04;90.67;94760.50;5038073;28;20197;-71
2021/12/28 05:05:11;;;;;;;0.80;0.80;;;;;;;8.11;91.46;94778.91;5039432;28;21221;-71
2021/12/28 05:07:37;;;;;;;0.77;0.60;;;;;;;7.96;91.78;94773.78;5040143;28;20227;-71
2021/12/28 05:10:05;;;;;;;1.53;0.90;;;;;;;8.19;91.23;94770.88;5039063;28;20232;-72
2021/12/28 05:12:33;;;;;;;2.50;1.47;;;;;;;8.41;91.43;94773.13;5038467;28;20215;-72
2021/12/28 05:15:00;;;;;;;9.07;1.40;;;;;;;8.19;90.82;94776.13;5039516;28;20235;-72
2021/12/28 05:17:27;;;;;;;2.97;1.10;;;;;;;8.29;90.85;94768.69;5038175;28;20201;-71
2021/12/28 05:19:54;;;;;;;2.27;0.90;;;;;;;8.27;91.06;94773.31;5035930;28;20216;-69
2021/12/28 05:22:21;;;;;;;1.57;1.17;;;;;;;8.25;90.52;94778.75;5038441;28;20216;-70
2021/12/28 05:24:47;;;;;;;13.57;1.60;;;;;;;8.43;90.47;94765.09;5038403;28;20240;-71
2021/12/28 05:27:14;;;;;;;2.73;1.43;;;;;;;8.19;90.48;94763.00;5039496;28;20210;-72
2021/12/28 05:29:42;;;;;;;2.87;1.10;;;;;;;8.26;92.18;94758.56;5038948;28;20228;-69
2021/12/28 05:32:08;;;;;;;11.33;1.10;;;;;;;8.16;91.49;94750.25;5038150;28;20201;-70
2021/12/28 05:34:35;;;;;;;5.23;0.97;;;;;;;8.10;91.22;94761.53;5037933;28;20220;-70
2021/12/28 05:37:02;;;;;;;2.20;1.23;;;;;;;8.17;91.45;94754.50;5038609;28;20204;-72
2021/12/28 05:39:28;;;;;;;2.63;1.00;;;;;;;8.29;91.12;94748.50;5038687;28;20557;-72
2021/12/28 05:41:55;;;;;;;1.63;1.10;;;;;;;8.04;92.17;94750.03;5039266;28;20208;-70
2021/12/28 05:44:23;;;;;;;10.63;1.70;;;;;;;8.13;92.65;94742.75;5038717;28;20221;-70
2021/12/28 05:46:52;;;;;;;1.00;0.83;;;;;;;8.15;92.68;94735.53;5040044;28;20201;-71
2021/12/28 05:49:18;;;;;;;1.17;0.80;;;;;;;7.96;92.69;94733.66;5040017;28;20208;-71
2021/12/28 05:51:44;;;;;;;0.77;0.70;;;;;;;8.10;91.31;94737.91;5040566;28;20228;-72
2021/12/28 05:54:12;;;;;;;0.93;0.70;;;;;;;8.30;90.66;94738.78;5039747;28;20240;-71
2021/12/28 05:56:38;;;;;;;1.87;1.00;;;;;;;8.29;91.26;94740.63;5039869;28;20213;-71
2021/12/28 05:59:05;;;;;;;3.03;1.23;;;;;;;8.20;92.34;94733.94;5040009;28;20205;-71
2021/12/28 06:01:31;;;;;;;2.43;1.17;;;;;;;8.37;92.02;94735.16;5039432;28;20201;-72
2021/12/28 06:03:59;;;;;;;0.93;0.70;;;;;;;8.63;92.15;94732.56;5036876;28;20226;-71
2021/12/28 06:06:26;;;;;;;1.57;1.10;;;;;;;8.35;93.02;94733.75;5038097;28;20205;-69
2021/12/28 06:08:53;;;;;;;1.73;1.20;;;;;;;8.41;92.13;94735.59;5039411;28;20208;-70
2021/12/28 06:11:20;;;;;;;4.37;1.03;;;;;;;8.46;93.15;94748.94;5039005;28;20320;-71
2021/12/28 06:13:47;;;;;;;3.03;1.73;;;;;;;8.51;92.60;94739.44;5038027;28;20248;-72
2021/12/28 06:16:15;;;;;;;2.60;1.63;;;;;;;8.35;92.49;94742.44;5038618;28;21155;-71
2021/12/28 06:18:42;;;;;;;1.40;1.13;;;;;;;8.56;92.32;94740.44;5037863;28;20619;-71
2021/12/28 06:21:10;;;;;;;4.50;1.13;;;;;;;8.82;91.76;94737.84;5035232;28;20205;-71
2021/12/28 06:23:36;;;;;;;1.03;0.93;;;;;;;8.70;90.92;94739.44;5036482;28;20314;-72
2021/12/28 06:26:03;;;;;;;1.40;1.13;;;;;;;8.42;92.23;94742.47;5037997;28;20232;-71
2021/12/28 06:28:30;;;;;;;10.30;1.53;;;;;;;8.58;92.11;94748.94;5038341;28;20209;-69
2021/12/28 06:30:56;;;;;;;3.33;1.47;;;;;;;8.44;92.46;94750.94;5041391;28;20244;-72
2021/12/28 06:33:24;;;;;;;4.00;0.80;;;;;;;8.51;92.51;94771.75;5040655;28;20851;-70
2021/12/28 06:35:51;;;;;;;4.53;1.23;;;;;;;8.63;92.42;94767.53;5041143;28;20202;-72
2021/12/28 06:38:20;;;;;;;3.23;1.63;;;;;;;8.63;92.94;94757.03;5040906;28;20669;-71
2021/12/28 06:40:46;;;;;;;1.23;0.87;;;;;;;8.14;92.85;94760.16;5040293;28;20208;-72
2021/12/28 06:43:13;;;;;;;1.03;0.93;;;;;;;7.86;94.34;94759.41;5038988;28;20205;-70
2021/12/28 06:45:40;;;;;;;3.47;1.20;;;;;;;7.95;94.85;94766.09;5040081;28;20201;-71
2021/12/28 06:48:06;;;;;;;1.20;0.93;;;;;;;8.22;93.78;94763.41;5039591;28;20228;-71
2021/12/28 06:50:33;;;;;;;1.80;0.90;;;;;;;8.20;93.78;94762.00;5039776;28;20217;-72
2021/12/28 06:52:59;;;;;;;4.90;0.97;;;;;;;8.03;94.68;94758.06;5039836;28;21356;-70
2021/12/28 06:55:27;;;;;;;0.90;0.90;;;;;;;8.47;94.36;94742.69;5040988;28;20209;-72
2021/12/28 06:57:54;;;;;;;1.37;1.00;;;;;;;8.13;94.70;94753.25;5040610;28;20594;-70
2021/12/28 07:00:20;;;;;;;1.07;0.97;;;;;;;8.34;93.45;94758.38;5038990;28;20216;-71
2021/12/28 07:02:47;;;;;;;3.00;1.43;;;;;;;8.27;94.07;94771.47;5039934;28;20225;-71
2021/12/28 07:05:14;;;;;;;0.93;0.70;;;;;;;8.25;93.40;94776.13;5042027;28;20228;-71
2021/12/28 07:07:40;;;;;;;2.03;1.43;;;;;;;8.12;94.17;94775.25;5041297;28;20205;-71
2021/12/28 07:10:08;;;;;;;5.27;1.50;;;;;;;8.42;94.07;94768.72;5040845;28;20202;-71
2021/12/28 07:12:37;;;;;;;10.77;2.90;;;;;;;8.54;94.62;94773.97;5039899;28;20212;-69
2021/12/28 07:15:04;;;;;;;9.90;2.90;;;;;;;8.33;94.92;94778.56;5039946;28;20231;-72
2021/12/28 07:17:31;;;;;;;11.33;2.90;;;;;;;7.92;95.15;94777.00;5038755;28;21262;-70
2021/12/28 07:19:58;;;;;;;1.77;1.20;;;;;;;8.43;99.72;94775.59;5035861;28;20279;-70
2021/12/28 07:22:24;;;;;;;5.00;2.03;;;;;;;8.43;95.79;94770.34;5038389;28;20205;-71
2021/12/28 07:24:51;;;;;;;12.37;3.70;;;;;;;8.28;94.70;94777.56;5039290;28;20597;-72
2021/12/28 07:27:17;;;;;;;17.97;4.30;;;;;;;8.10;95.69;94785.13;5039774;28;20209;-71
2021/12/28 07:29:45;;;;;;;11.87;3.37;;;;;;;8.58;95.12;94785.69;5039912;28;21129;-69
2021/12/28 07:32:12;;;;;;;10.80;4.50;;;;;;;7.97;96.33;94788.50;5036406;28;20221;-71
2021/12/28 07:34:38;;;;;;;9.40;2.90;;;;;;;8.01;96.11;94792.34;5038322;28;20217;-72
2021/12/28 07:37:05;;;;;;;7.93;2.13;;;;;;;8.06;96.51;94787.34;5039048;28;20201;-72
2021/12/28 07:39:31;;;;;;;3.20;2.70;;;;;;;7.87;97.25;94795.94;5038124;28;20204;-71
2021/12/28 07:41:58;;;;;;;11.37;3.60;;;;;;;8.06;96.79;94797.03;5034935;28;20205;-72
2021/12/28 07:44:24;;;;;;;8.60;3.10;;;;;;;8.12;96.79;94793.59;5037014;28;20228;-72
2021/12/28 07:46:52;;;;;;;23.63;2.83;;;;;;;8.52;97.03;94796.97;5037871;28;20216;-71
2021/12/28 07:49:19;;;;;;;2.00;1.57;;;;;;;7.92;98.13;94797.97;5037984;28;20205;-72
2021/12/28 07:51:46;;;;;;;11.20;1.53;;;;;;;8.16;97.00;94794.84;5037697;28;20664;-71
2021/12/28 07:54:12;;;;;;;2.23;1.50;;;;;;;8.29;97.01;94787.84;5036835;28;20731;-72
2021/12/28 07:56:39;;;;;;;6.30;1.43;;;;;;;8.22;97.92;94789.66;5037468;28;20304;-72
2021/12/28 07:59:05;;;;;;;1.30;1.20;;;;;;;8.09;97.93;94791.38;5037863;28;20205;-72
2021/12/28 08:01:32;;;;;;;14.70;1.67;;;;;;;8.43;97.79;94786.88;5037788;28;20213;-72
2021/12/28 08:04:01;;;;;;;0.40;0.40;;;;;;;8.35;99.08;94783.63;5036919;28;20784;-72
2021/12/28 08:06:27;;;;;;;1.00;0.90;;;;;;;8.06;99.27;94792.59;5037515;28;20201;-71
2021/12/28 08:08:54;;;;;;;0.93;0.80;;;;;;;8.14;100.00;94787.19;5037888;28;20205;-69
2021/12/28 08:11:22;;;;;;;0.70;0.67;;;;;;;8.26;99.47;94787.44;5038449;28;20987;-70
2021/12/28 08:13:49;;;;;;;2.10;1.33;;;;;;;8.27;99.00;94784.59;5037183;28;20306;-71
2021/12/28 08:16:15;;;;;;;4.47;0.93;;;;;;;8.11;99.92;94802.50;5037118;28;21262;-72
2021/12/28 08:18:42;;;;;;;3.20;1.03;;;;;;;8.35;99.50;94794.09;5037446;28;20227;-72
2021/12/28 08:21:09;;;;;;;0.67;0.67;;;;;;;8.55;98.68;94791.34;5035751;28;20201;-71
2021/12/28 08:23:36;;;;;;;1.97;1.47;;;;;;;8.40;98.76;94794.31;5036588;28;20232;-71
2021/12/28 08:26:03;;;;;;;1.57;1.00;;;;;;;8.44;98.39;94803.41;5038862;28;20205;-71
2021/12/28 08:28:29;;;;;;;0.83;0.57;;;;;;;8.25;98.98;94799.75;5039471;28;20215;-71
2021/12/28 08:30:57;;;;;;;2.57;1.10;;;;;;;8.17;99.41;94801.72;5039383;28;20229;-72
2021/12/28 08:33:24;;;;;;;3.63;0.50;;;;;;;8.53;98.00;94793.34;5038766;28;20221;-72
2021/12/28 08:35:51;;;;;;;0.97;0.60;;;;;;;8.51;98.53;94797.19;5038900;28;20209;-71
2021/12/28 08:38:19;;;;;;;1.30;0.77;;;;;;;8.87;98.19;94787.94;5039471;28;20220;-71
2021/12/28 08:40:45;;;;;;;0.90;0.90;;;;;;;8.34;98.94;94788.06;5039129;28;20216;-71
2021/12/28 08:43:13;;;;;;;2.63;0.80;;;;;;;8.62;98.58;94781.66;5038538;28;20205;-71
2021/12/28 08:45:41;;;;;;;0.47;0.40;;;;;;;8.68;99.22;94778.22;5038856;28;20228;-71
2021/12/28 08:48:10;;;;;;;0.63;0.60;;;;;;;8.53;99.06;94772.34;5039420;28;20213;-72
2021/12/28 08:50:38;;;;;;;1.03;0.70;;;;;;;8.66;99.00;94766.31;5039057;28;20273;-72
2021/12/28 08:53:05;;;;;;;0.90;0.77;;;;;;;8.66;98.41;94758.44;5037861;28;20213;-72
2021/12/28 08:55:33;;;;;;;0.80;0.80;;;;;;;9.10;98.09;94759.47;5038858;28;20209;-70
2021/12/28 08:57:59;;;;;;;0.70;0.70;;;;;;;8.80;98.59;94760.88;5039008;28;20209;-71
2021/12/28 09:00:30;;;;;;;0.60;0.50;;;;;;;8.94;99.34;94759.84;5037872;28;20208;-70
2021/12/28 09:02:58;;;;;;;0.73;0.53;;;;;;;9.17;97.94;94757.63;5037704;28;20236;-72
2021/12/28 09:05:26;;;;;;;1.63;0.73;;;;;;;9.21;97.02;94756.19;5038100;28;20198;-72
2021/12/28 09:07:53;;;;;;;0.90;0.90;;;;;;;8.91;99.01;94754.19;5035580;28;20205;-71
2021/12/28 09:10:20;;;;;;;3.30;0.97;;;;;;;9.25;97.63;94752.13;5037629;28;20201;-70
2021/12/28 09:12:48;;;;;;;0.70;0.70;;;;;;;9.36;97.44;94744.44;5037914;28;20232;-71
2021/12/28 09:15:15;;;;;;;7.40;1.07;;;;;;;9.21;97.50;94750.94;5038096;28;20232;-71
2021/12/28 09:17:42;;;;;;;1.43;1.00;;;;;;;9.19;98.02;94751.16;5038234;28;20216;-72
2021/12/28 09:20:12;;;;;;;1.23;1.03;;;;;;;9.29;97.55;94753.34;5034756;28;20677;-72
2021/12/28 09:22:38;;;;;;;0.83;0.83;;;;;;;9.20;97.60;94741.44;5040057;28;20227;-72
2021/12/28 09:25:06;;;;;;;2.70;1.13;;;;;;;9.23;98.02;94743.66;5037539;28;20221;-72
2021/12/28 09:27:33;;;;;;;0.60;0.60;;;;;;;9.38;97.28;94738.97;5037435;28;20209;-71
2021/12/28 09:30:01;;;;;;;0.90;0.80;;;;;;;9.54;97.54;94741.97;5038569;28;20725;-72
2021/12/28 09:32:28;;;;;;;2.93;1.03;;;;;;;9.31;96.64;94740.81;5036554;28;20604;-71
2021/12/28 09:34:56;;;;;;;5.20;0.70;;;;;;;9.23;97.97;94741.84;5037581;28;20304;-69
2021/12/28 09:37:22;;;;;;;1.40;0.60;;;;;;;9.17;97.38;94742.66;5038083;28;20213;-71
2021/12/28 09:39:49;;;;;;;0.53;0.53;;;;;;;9.31;97.19;94740.81;5038180;28;20208;-72
2021/12/28 09:42:17;;;;;;;0.53;0.53;;;;;;;9.41;97.91;94735.94;5037613;28;20201;-72
2021/12/28 09:44:47;;;;;;;3.40;0.83;;;;;;;9.35;97.57;94740.19;5039453;28;20217;-70
2021/12/28 09:47:16;;;;;;;2.90;1.43;;;;;;;9.79;96.82;94738.44;5038781;28;20216;-71
2021/12/28 09:49:43;;;;;;;2.10;1.00;;;;;;;9.60;97.12;94740.31;5039066;28;20232;-72
2021/12/28 09:52:09;;;;;;;1.00;0.87;;;;;;;9.73;96.50;94731.38;5037498;28;20261;-70
2021/12/28 09:54:36;;;;;;;0.60;0.60;;;;;;;9.60;96.11;94724.53;5038574;28;20221;-72
2021/12/28 09:57:04;;;;;;;0.50;0.50;;;;;;;9.98;94.99;94724.44;5038217;28;20209;-70
2021/12/28 09:59:32;;;;;;;1.03;0.93;;;;;;;10.07;95.61;94731.06;5036980;28;20209;-72
2021/12/28 10:02:01;;;;;;;1.00;0.60;;;;;;;10.00;96.60;94730.28;5037561;28;20568;-70
2021/12/28 10:04:29;;;;;;;5.70;0.67;;;;;;;10.49;95.13;94725.16;5039951;28;20275;-72
2021/12/28 10:07:15;;;;;;;4.97;0.93;;;;;;;10.85;93.03;94717.41;5041930;28;20215;-72
2021/12/28 10:09:42;;;;;;;1.20;0.93;;;;;;;10.23;93.90;94711.34;5042119;28;20210;-71
2021/12/28 10:12:10;;;;;;;0.67;0.67;;;;;;;10.37;94.88;94730.31;5040822;28;20221;-72
2021/12/28 10:14:36;;;;;;;0.93;0.80;;;;;;;10.17;94.81;94739.34;5041242;28;20233;-71
2021/12/28 10:17:06;;;;;;;1.17;0.83;;;;;;;10.58;94.25;94727.31;5042317;28;20205;-70
2021/12/28 10:19:38;;;;;;;1.17;1.00;;;;;;;10.76;94.23;94726.59;5038416;28;20572;-71
2021/12/28 10:22:26;;;;;;;1.37;0.97;;;;;;;10.81;92.50;94717.03;5040949;28;20224;-71
2021/12/28 10:24:56;;;;;;;1.67;0.80;;;;;;;10.82;93.91;94723.09;5042383;28;20217;-72
2021/12/28 10:27:25;;;;;;;2.67;0.80;;;;;;;10.86;93.85;94725.09;5042539;28;21000;-70
2021/12/28 10:29:52;;;;;;;1.03;0.40;;;;;;;10.47;94.69;94725.34;5042194;28;20997;-70
2021/12/28 10:32:22;;;;;;;0.50;0.50;;;;;;;10.75;93.75;94717.06;5042483;28;20225;-72
2021/12/28 10:34:55;;;;;;;1.67;0.80;;;;;;;10.84;94.06;94719.22;5041929;28;20221;-71
2021/12/28 10:37:25;;;;;;;1.40;0.70;;;;;;;10.75;95.15;94712.59;5041851;28;20201;-70
2021/12/28 10:39:56;;;;;;;1.80;0.63;;;;;;;10.62;94.67;94710.06;5041303;28;21044;-70
2021/12/28 10:42:44;;;;;;;1.00;0.80;;;;;;;11.10;92.94;94711.09;5037125;28;20218;-70
2021/12/28 10:45:13;;;;;;;0.30;0.30;;;;;;;10.73;93.91;94703.28;5040395;28;20228;-73
2021/12/28 10:47:40;;;;;;;1.50;0.50;;;;;;;10.63;94.48;94703.00;5039852;28;20197;-70
2021/12/28 10:50:28;;;;;;;0.70;0.63;;;;;;;11.19;93.33;94707.97;5038846;28;20201;-72
2021/12/28 10:53:06;;;;;;;6.00;1.53;;;;;;;10.89;94.00;94693.03;5037439;28;20225;-72
2021/12/28 10:55:34;;;;;;;0.83;0.73;;;;;;;10.63;95.98;94689.81;5038632;28;20288;-71
2021/12/28 10:58:02;;;;;;;2.17;1.20;;;;;;;10.41;97.46;94691.19;5038604;28;20205;-72
2021/12/28 11:00:31;;;;;;;0.87;0.63;;;;;;;10.33;96.94;94688.81;5034766;28;20213;-71
2021/12/28 11:03:17;;;;;;;0.60;0.50;;;;;;;11.13;94.37;94685.09;5038585;28;20201;-71
2021/12/28 11:05:47;;;;;;;0.63;0.63;;;;;;;10.84;96.07;94682.31;5038632;28;20198;-70
2021/12/28 11:08:15;;;;;;;0.67;0.40;;;;;;;10.90;95.49;94680.69;5037209;28;20767;-71
2021/12/28 11:10:44;;;;;;;0.30;0.30;;;;;;;10.92;95.69;94675.97;5038209;28;20201;-71
2021/12/28 11:13:12;;;;;;;0.87;0.67;;;;;;;10.76;95.51;94676.53;5036899;28;20232;-71
2021/12/28 11:15:43;;;;;;;1.33;0.63;;;;;;;11.21;95.97;94670.84;5035276;28;20607;-71
2021/12/28 11:18:18;;;;;;;0.30;0.30;;;;;;;11.30;94.12;94669.53;5037312;28;20213;-71
2021/12/28 11:20:46;;;;;;;0.80;0.60;;;;;;;11.10;95.36;94669.72;5037836;28;20319;-71
2021/12/28 11:23:15;;;;;;;0.60;0.60;;;;;;;11.00;94.42;94674.69;5036767;28;20586;-71
2021/12/28 11:25:41;;;;;;;0.30;0.30;;;;;;;10.89;94.14;94668.53;5035853;28;20197;-71
2021/12/28 11:28:17;;;;;;;0.70;0.60;;;;;;;11.33;93.88;94664.63;5038451;28;21193;-72
2021/12/28 11:31:07;;;;;;;0.67;0.67;;;;;;;11.70;92.20;94666.25;5036917;28;20205;-72
2021/12/28 11:33:54;;;;;;;0.87;0.70;;;;;;;11.70;92.23;94661.78;5036188;28;20229;-73
2021/12/28 11:36:24;;;;;;;0.77;0.77;;;;;;;11.79;93.28;94652.53;5037701;28;20209;-73
2021/12/28 11:38:53;;;;;;;0.73;0.60;;;;;;;11.69;93.55;94648.81;5037403;28;20201;-73
2021/12/28 11:41:20;;;;;;;1.37;0.60;;;;;;;11.65;92.79;94647.66;5037214;28;20209;-73
2021/12/28 11:43:48;;;;;;;0.50;0.50;;;;;;;11.42;93.98;94652.75;5037197;28;20947;-73